sensor_id;sensor_type;location;lat;lon;timestamp;P1;durP1;ratioP1;P2;durP2;ratioP2
56173;SDS011;42058;52.308;20.924;2023-11-18T00:00:16;15.70;;;8.40;;
56173;SDS011;42058;52.308;20.924;2023-11-18T00:03:04;15.30;;;8.10;;
56173;SDS011;42058;52.308;20.924;2023-11-18T00:05:33;14.30;;;8.20;;
56173;SDS011;42058;52.308;20.924;2023-11-18T00:08:00;16.70;;;8.10;;
56173;SDS011;42058;52.308;20.924;2023-11-18T00:10:29;17.20;;;8.40;;
56173;SDS011;42058;52.308;20.924;2023-11-18T00:12:57;15.70;;;9.30;;
56173;SDS011;42058;52.308;20.924;2023-11-18T00:15:24;15.50;;;7.80;;
56173;SDS011;42058;52.308;20.924;2023-11-18T00:17:52;11.00;;;6.70;;
56173;SDS011;42058;52.308;20.924;2023-11-18T00:20:20;19.30;;;9.30;;
56173;SDS011;42058;52.308;20.924;2023-11-18T00:22:51;16.70;;;8.00;;
56173;SDS011;42058;52.308;20.924;2023-11-18T00:25:20;12.90;;;7.70;;
56173;SDS011;42058;52.308;20.924;2023-11-18T00:27:48;13.90;;;8.00;;
56173;SDS011;42058;52.308;20.924;2023-11-18T00:30:15;20.30;;;7.80;;
56173;SDS011;42058;52.308;20.924;2023-11-18T00:32:43;16.40;;;7.90;;
56173;SDS011;42058;52.308;20.924;2023-11-18T00:35:12;13.00;;;7.40;;
56173;SDS011;42058;52.308;20.924;2023-11-18T00:37:39;20.20;;;8.30;;
56173;SDS011;42058;52.308;20.924;2023-11-18T00:40:08;16.80;;;7.40;;
56173;SDS011;42058;52.308;20.924;2023-11-18T00:42:37;14.30;;;7.50;;
56173;SDS011;42058;52.308;20.924;2023-11-18T00:45:05;15.50;;;8.00;;
56173;SDS011;42058;52.308;20.924;2023-11-18T00:47:34;14.30;;;8.10;;
56173;SDS011;42058;52.308;20.924;2023-11-18T00:50:02;12.10;;;6.70;;
56173;SDS011;42058;52.308;20.924;2023-11-18T00:52:30;14.20;;;7.90;;
56173;SDS011;42058;52.308;20.924;2023-11-18T00:54:58;16.00;;;8.00;;
56173;SDS011;42058;52.308;20.924;2023-11-18T00:57:26;11.80;;;6.90;;
56173;SDS011;42058;52.308;20.924;2023-11-18T00:59:54;15.20;;;7.30;;
56173;SDS011;42058;52.308;20.924;2023-11-18T01:02:22;11.60;;;6.50;;
56173;SDS011;42058;52.308;20.924;2023-11-18T01:04:50;12.60;;;7.10;;
56173;SDS011;42058;52.308;20.924;2023-11-18T01:07:17;12.40;;;7.30;;
56173;SDS011;42058;52.308;20.924;2023-11-18T01:09:45;13.30;;;7.10;;
56173;SDS011;42058;52.308;20.924;2023-11-18T01:12:13;11.30;;;6.00;;
56173;SDS011;42058;52.308;20.924;2023-11-18T01:14:41;12.80;;;6.50;;
56173;SDS011;42058;52.308;20.924;2023-11-18T01:17:09;9.90;;;6.10;;
56173;SDS011;42058;52.308;20.924;2023-11-18T01:19:37;11.50;;;6.40;;
56173;SDS011;42058;52.308;20.924;2023-11-18T01:22:05;11.80;;;6.90;;
56173;SDS011;42058;52.308;20.924;2023-11-18T01:24:33;9.70;;;5.70;;
56173;SDS011;42058;52.308;20.924;2023-11-18T01:27:02;12.80;;;6.50;;
56173;SDS011;42058;52.308;20.924;2023-11-18T01:29:30;12.20;;;6.00;;
56173;SDS011;42058;52.308;20.924;2023-11-18T01:31:58;10.70;;;6.20;;
56173;SDS011;42058;52.308;20.924;2023-11-18T01:34:26;12.20;;;6.90;;
56173;SDS011;42058;52.308;20.924;2023-11-18T01:36:55;8.60;;;5.90;;
56173;SDS011;42058;52.308;20.924;2023-11-18T01:39:24;10.20;;;5.40;;
56173;SDS011;42058;52.308;20.924;2023-11-18T01:41:55;8.30;;;5.90;;
56173;SDS011;42058;52.308;20.924;2023-11-18T01:44:23;12.40;;;6.40;;
56173;SDS011;42058;52.308;20.924;2023-11-18T01:46:51;9.80;;;5.90;;
56173;SDS011;42058;52.308;20.924;2023-11-18T01:49:20;10.10;;;6.10;;
56173;SDS011;42058;52.308;20.924;2023-11-18T01:51:50;8.30;;;5.20;;
56173;SDS011;42058;52.308;20.924;2023-11-18T01:56:49;7.40;;;4.30;;
56173;SDS011;42058;52.308;20.924;2023-11-18T01:59:17;9.70;;;5.50;;
56173;SDS011;42058;52.308;20.924;2023-11-18T02:01:51;13.10;;;5.70;;
56173;SDS011;42058;52.308;20.924;2023-11-18T02:04:21;10.40;;;5.80;;
56173;SDS011;42058;52.308;20.924;2023-11-18T02:06:50;9.20;;;5.80;;
56173;SDS011;42058;52.308;20.924;2023-11-18T02:09:19;9.30;;;5.50;;
56173;SDS011;42058;52.308;20.924;2023-11-18T02:14:39;8.40;;;5.10;;
56173;SDS011;42058;52.308;20.924;2023-11-18T02:17:07;6.60;;;4.50;;
56173;SDS011;42058;52.308;20.924;2023-11-18T02:22:07;7.30;;;4.50;;
56173;SDS011;42058;52.308;20.924;2023-11-18T02:24:38;8.00;;;4.70;;
56173;SDS011;42058;52.308;20.924;2023-11-18T02:27:08;10.40;;;5.70;;
56173;SDS011;42058;52.308;20.924;2023-11-18T02:29:42;10.60;;;5.60;;
56173;SDS011;42058;52.308;20.924;2023-11-18T02:35:23;9.00;;;4.90;;
56173;SDS011;42058;52.308;20.924;2023-11-18T02:37:55;8.40;;;4.90;;
56173;SDS011;42058;52.308;20.924;2023-11-18T02:43:04;8.40;;;5.50;;
56173;SDS011;42058;52.308;20.924;2023-11-18T02:45:33;7.80;;;5.30;;
56173;SDS011;42058;52.308;20.924;2023-11-18T02:48:06;9.20;;;4.90;;
56173;SDS011;42058;52.308;20.924;2023-11-18T02:50:35;7.30;;;4.50;;
56173;SDS011;42058;52.308;20.924;2023-11-18T02:53:03;7.30;;;4.70;;
56173;SDS011;42058;52.308;20.924;2023-11-18T02:55:31;8.30;;;5.20;;
56173;SDS011;42058;52.308;20.924;2023-11-18T02:57:59;7.50;;;5.10;;
56173;SDS011;42058;52.308;20.924;2023-11-18T03:00:28;8.30;;;5.20;;
56173;SDS011;42058;52.308;20.924;2023-11-18T03:02:56;9.00;;;5.80;;
56173;SDS011;42058;52.308;20.924;2023-11-18T03:05:24;7.60;;;4.50;;
56173;SDS011;42058;52.308;20.924;2023-11-18T03:07:53;9.00;;;5.20;;
56173;SDS011;42058;52.308;20.924;2023-11-18T03:10:24;8.70;;;4.90;;
56173;SDS011;42058;52.308;20.924;2023-11-18T03:12:53;9.00;;;5.00;;
56173;SDS011;42058;52.308;20.924;2023-11-18T03:15:21;8.20;;;5.20;;
56173;SDS011;42058;52.308;20.924;2023-11-18T03:17:51;7.40;;;5.20;;
56173;SDS011;42058;52.308;20.924;2023-11-18T03:20:20;7.60;;;5.00;;
56173;SDS011;42058;52.308;20.924;2023-11-18T03:22:50;8.10;;;4.90;;
56173;SDS011;42058;52.308;20.924;2023-11-18T03:25:19;7.80;;;5.00;;
56173;SDS011;42058;52.308;20.924;2023-11-18T03:27:49;8.70;;;5.60;;
56173;SDS011;42058;52.308;20.924;2023-11-18T03:30:16;8.90;;;5.60;;
56173;SDS011;42058;52.308;20.924;2023-11-18T03:32:44;7.90;;;5.40;;
56173;SDS011;42058;52.308;20.924;2023-11-18T03:35:13;9.30;;;6.00;;
56173;SDS011;42058;52.308;20.924;2023-11-18T03:37:41;9.30;;;6.00;;
56173;SDS011;42058;52.308;20.924;2023-11-18T03:40:11;7.70;;;5.60;;
56173;SDS011;42058;52.308;20.924;2023-11-18T03:42:43;8.80;;;5.40;;
56173;SDS011;42058;52.308;20.924;2023-11-18T03:45:14;9.30;;;5.10;;
56173;SDS011;42058;52.308;20.924;2023-11-18T03:47:46;9.70;;;6.40;;
56173;SDS011;42058;52.308;20.924;2023-11-18T03:50:15;8.00;;;5.50;;
56173;SDS011;42058;52.308;20.924;2023-11-18T03:52:43;9.70;;;5.60;;
56173;SDS011;42058;52.308;20.924;2023-11-18T03:55:11;7.30;;;5.10;;
56173;SDS011;42058;52.308;20.924;2023-11-18T03:57:40;8.90;;;5.70;;
56173;SDS011;42058;52.308;20.924;2023-11-18T04:00:07;8.10;;;5.60;;
56173;SDS011;42058;52.308;20.924;2023-11-18T04:02:39;7.20;;;5.50;;
56173;SDS011;42058;52.308;20.924;2023-11-18T04:05:07;8.50;;;5.60;;
56173;SDS011;42058;52.308;20.924;2023-11-18T04:07:36;7.90;;;5.90;;
56173;SDS011;42058;52.308;20.924;2023-11-18T04:10:04;8.90;;;5.90;;
56173;SDS011;42058;52.308;20.924;2023-11-18T04:12:37;8.10;;;5.00;;
56173;SDS011;42058;52.308;20.924;2023-11-18T04:15:05;7.20;;;4.10;;
56173;SDS011;42058;52.308;20.924;2023-11-18T04:17:35;8.00;;;5.10;;
56173;SDS011;42058;52.308;20.924;2023-11-18T04:20:03;10.70;;;5.70;;
56173;SDS011;42058;52.308;20.924;2023-11-18T04:22:42;8.80;;;5.60;;
56173;SDS011;42058;52.308;20.924;2023-11-18T04:25:11;8.70;;;5.10;;
56173;SDS011;42058;52.308;20.924;2023-11-18T04:27:39;7.50;;;5.50;;
56173;SDS011;42058;52.308;20.924;2023-11-18T04:30:11;7.70;;;5.70;;
56173;SDS011;42058;52.308;20.924;2023-11-18T04:32:40;7.40;;;5.20;;
56173;SDS011;42058;52.308;20.924;2023-11-18T04:35:11;9.20;;;5.10;;
56173;SDS011;42058;52.308;20.924;2023-11-18T04:37:40;7.10;;;4.90;;
56173;SDS011;42058;52.308;20.924;2023-11-18T04:40:11;6.20;;;4.50;;
56173;SDS011;42058;52.308;20.924;2023-11-18T04:42:39;7.60;;;5.30;;
56173;SDS011;42058;52.308;20.924;2023-11-18T04:45:07;7.50;;;5.20;;
56173;SDS011;42058;52.308;20.924;2023-11-18T04:47:37;8.30;;;4.80;;
56173;SDS011;42058;52.308;20.924;2023-11-18T04:50:06;6.70;;;4.60;;
56173;SDS011;42058;52.308;20.924;2023-11-18T04:52:36;6.30;;;4.40;;
56173;SDS011;42058;52.308;20.924;2023-11-18T04:55:04;7.80;;;4.90;;
56173;SDS011;42058;52.308;20.924;2023-11-18T04:57:33;6.30;;;4.60;;
56173;SDS011;42058;52.308;20.924;2023-11-18T05:00:02;8.20;;;5.00;;
56173;SDS011;42058;52.308;20.924;2023-11-18T05:02:38;6.60;;;4.70;;
56173;SDS011;42058;52.308;20.924;2023-11-18T05:05:07;5.80;;;4.60;;
56173;SDS011;42058;52.308;20.924;2023-11-18T05:07:35;5.40;;;4.10;;
56173;SDS011;42058;52.308;20.924;2023-11-18T05:10:03;6.80;;;4.70;;
56173;SDS011;42058;52.308;20.924;2023-11-18T05:12:31;9.30;;;5.20;;
56173;SDS011;42058;52.308;20.924;2023-11-18T05:15:00;7.90;;;4.80;;
56173;SDS011;42058;52.308;20.924;2023-11-18T05:17:28;5.90;;;4.30;;
56173;SDS011;42058;52.308;20.924;2023-11-18T05:19:57;5.50;;;4.00;;
56173;SDS011;42058;52.308;20.924;2023-11-18T05:22:25;4.60;;;3.20;;
56173;SDS011;42058;52.308;20.924;2023-11-18T05:24:53;6.60;;;4.70;;
56173;SDS011;42058;52.308;20.924;2023-11-18T05:27:20;7.30;;;4.00;;
56173;SDS011;42058;52.308;20.924;2023-11-18T05:29:48;6.70;;;4.20;;
56173;SDS011;42058;52.308;20.924;2023-11-18T05:32:21;6.20;;;4.30;;
56173;SDS011;42058;52.308;20.924;2023-11-18T05:34:50;6.50;;;4.10;;
56173;SDS011;42058;52.308;20.924;2023-11-18T05:37:21;6.20;;;3.90;;
56173;SDS011;42058;52.308;20.924;2023-11-18T05:39:50;5.00;;;4.10;;
56173;SDS011;42058;52.308;20.924;2023-11-18T05:42:26;6.50;;;4.10;;
56173;SDS011;42058;52.308;20.924;2023-11-18T05:44:58;7.10;;;3.90;;
56173;SDS011;42058;52.308;20.924;2023-11-18T05:47:27;6.30;;;4.10;;
56173;SDS011;42058;52.308;20.924;2023-11-18T05:49:55;6.50;;;4.30;;
56173;SDS011;42058;52.308;20.924;2023-11-18T05:52:23;5.80;;;3.90;;
56173;SDS011;42058;52.308;20.924;2023-11-18T05:54:51;6.40;;;3.60;;
56173;SDS011;42058;52.308;20.924;2023-11-18T05:57:18;5.90;;;4.00;;
56173;SDS011;42058;52.308;20.924;2023-11-18T05:59:46;6.00;;;3.70;;
56173;SDS011;42058;52.308;20.924;2023-11-18T06:02:15;6.30;;;3.80;;
56173;SDS011;42058;52.308;20.924;2023-11-18T06:04:46;5.90;;;3.50;;
56173;SDS011;42058;52.308;20.924;2023-11-18T06:07:14;6.10;;;4.30;;
56173;SDS011;42058;52.308;20.924;2023-11-18T06:09:43;5.50;;;4.00;;
56173;SDS011;42058;52.308;20.924;2023-11-18T06:12:11;7.00;;;4.10;;
56173;SDS011;42058;52.308;20.924;2023-11-18T06:14:40;4.80;;;3.70;;
56173;SDS011;42058;52.308;20.924;2023-11-18T06:17:09;5.60;;;3.90;;
56173;SDS011;42058;52.308;20.924;2023-11-18T06:19:40;5.30;;;3.50;;
56173;SDS011;42058;52.308;20.924;2023-11-18T06:22:08;5.90;;;3.80;;
56173;SDS011;42058;52.308;20.924;2023-11-18T06:24:37;5.80;;;3.90;;
56173;SDS011;42058;52.308;20.924;2023-11-18T06:27:06;7.10;;;4.00;;
56173;SDS011;42058;52.308;20.924;2023-11-18T06:29:36;6.80;;;4.40;;
56173;SDS011;42058;52.308;20.924;2023-11-18T06:32:03;6.30;;;3.80;;
56173;SDS011;42058;52.308;20.924;2023-11-18T06:34:33;6.40;;;4.30;;
56173;SDS011;42058;52.308;20.924;2023-11-18T06:37:01;6.50;;;4.20;;
56173;SDS011;42058;52.308;20.924;2023-11-18T06:39:29;7.40;;;4.80;;
56173;SDS011;42058;52.308;20.924;2023-11-18T06:41:57;8.00;;;4.60;;
56173;SDS011;42058;52.308;20.924;2023-11-18T06:44:25;7.80;;;4.30;;
56173;SDS011;42058;52.308;20.924;2023-11-18T06:46:53;7.90;;;4.60;;
56173;SDS011;42058;52.308;20.924;2023-11-18T06:49:21;6.90;;;4.70;;
56173;SDS011;42058;52.308;20.924;2023-11-18T06:51:49;6.50;;;4.00;;
56173;SDS011;42058;52.308;20.924;2023-11-18T06:54:18;7.00;;;4.20;;
56173;SDS011;42058;52.308;20.924;2023-11-18T06:56:46;7.00;;;4.80;;
56173;SDS011;42058;52.308;20.924;2023-11-18T06:59:13;7.10;;;3.80;;
56173;SDS011;42058;52.308;20.924;2023-11-18T07:01:43;6.40;;;4.70;;
56173;SDS011;42058;52.308;20.924;2023-11-18T07:04:13;7.00;;;4.80;;
56173;SDS011;42058;52.308;20.924;2023-11-18T07:06:42;6.80;;;4.20;;
56173;SDS011;42058;52.308;20.924;2023-11-18T07:09:11;6.20;;;4.00;;
56173;SDS011;42058;52.308;20.924;2023-11-18T07:11:49;6.00;;;3.90;;
56173;SDS011;42058;52.308;20.924;2023-11-18T07:14:18;7.20;;;3.80;;
56173;SDS011;42058;52.308;20.924;2023-11-18T07:16:46;8.20;;;5.10;;
56173;SDS011;42058;52.308;20.924;2023-11-18T07:19:15;7.70;;;4.60;;
56173;SDS011;42058;52.308;20.924;2023-11-18T07:21:48;6.00;;;4.30;;
56173;SDS011;42058;52.308;20.924;2023-11-18T07:24:17;6.40;;;4.10;;
56173;SDS011;42058;52.308;20.924;2023-11-18T07:26:45;7.70;;;4.80;;
56173;SDS011;42058;52.308;20.924;2023-11-18T07:29:13;7.90;;;4.70;;
56173;SDS011;42058;52.308;20.924;2023-11-18T07:31:41;7.60;;;5.20;;
56173;SDS011;42058;52.308;20.924;2023-11-18T07:34:10;7.70;;;4.80;;
56173;SDS011;42058;52.308;20.924;2023-11-18T07:36:38;7.70;;;4.80;;
56173;SDS011;42058;52.308;20.924;2023-11-18T07:39:06;8.40;;;5.00;;
56173;SDS011;42058;52.308;20.924;2023-11-18T07:41:43;6.40;;;4.60;;
56173;SDS011;42058;52.308;20.924;2023-11-18T07:44:11;6.50;;;4.70;;
56173;SDS011;42058;52.308;20.924;2023-11-18T07:46:40;8.50;;;5.60;;
56173;SDS011;42058;52.308;20.924;2023-11-18T07:49:10;9.70;;;5.40;;
56173;SDS011;42058;52.308;20.924;2023-11-18T07:51:39;8.20;;;4.80;;
56173;SDS011;42058;52.308;20.924;2023-11-18T07:54:08;7.50;;;4.80;;
56173;SDS011;42058;52.308;20.924;2023-11-18T07:56:37;7.20;;;5.10;;
56173;SDS011;42058;52.308;20.924;2023-11-18T07:59:05;9.10;;;5.00;;
56173;SDS011;42058;52.308;20.924;2023-11-18T08:01:36;7.30;;;4.90;;
56173;SDS011;42058;52.308;20.924;2023-11-18T08:04:03;7.50;;;4.80;;
56173;SDS011;42058;52.308;20.924;2023-11-18T08:06:34;8.50;;;5.10;;
56173;SDS011;42058;52.308;20.924;2023-11-18T08:09:02;7.80;;;4.90;;
56173;SDS011;42058;52.308;20.924;2023-11-18T08:11:30;7.80;;;5.10;;
56173;SDS011;42058;52.308;20.924;2023-11-18T08:13:58;7.40;;;4.50;;
56173;SDS011;42058;52.308;20.924;2023-11-18T08:16:26;7.40;;;4.70;;
56173;SDS011;42058;52.308;20.924;2023-11-18T08:18:55;9.20;;;5.30;;
56173;SDS011;42058;52.308;20.924;2023-11-18T08:21:23;8.10;;;5.40;;
56173;SDS011;42058;52.308;20.924;2023-11-18T08:23:51;10.10;;;5.70;;
56173;SDS011;42058;52.308;20.924;2023-11-18T08:26:20;7.00;;;4.80;;
56173;SDS011;42058;52.308;20.924;2023-11-18T08:28:48;7.80;;;5.20;;
56173;SDS011;42058;52.308;20.924;2023-11-18T08:31:16;6.80;;;4.30;;
56173;SDS011;42058;52.308;20.924;2023-11-18T08:33:44;8.40;;;5.50;;
56173;SDS011;42058;52.308;20.924;2023-11-18T08:36:13;4.70;;;3.80;;
56173;SDS011;42058;52.308;20.924;2023-11-18T08:38:41;11.20;;;5.80;;
56173;SDS011;42058;52.308;20.924;2023-11-18T08:41:11;7.90;;;4.80;;
56173;SDS011;42058;52.308;20.924;2023-11-18T08:43:39;7.30;;;4.70;;
56173;SDS011;42058;52.308;20.924;2023-11-18T08:46:08;10.20;;;5.20;;
56173;SDS011;42058;52.308;20.924;2023-11-18T08:48:36;7.00;;;4.60;;
56173;SDS011;42058;52.308;20.924;2023-11-18T08:51:05;9.90;;;5.00;;
56173;SDS011;42058;52.308;20.924;2023-11-18T08:53:36;8.00;;;5.30;;
56173;SDS011;42058;52.308;20.924;2023-11-18T08:56:08;7.00;;;4.90;;
56173;SDS011;42058;52.308;20.924;2023-11-18T08:58:42;8.00;;;4.90;;
56173;SDS011;42058;52.308;20.924;2023-11-18T09:01:12;7.50;;;4.50;;
56173;SDS011;42058;52.308;20.924;2023-11-18T09:03:43;6.60;;;4.70;;
56173;SDS011;42058;52.308;20.924;2023-11-18T09:06:16;7.50;;;4.80;;
56173;SDS011;42058;52.308;20.924;2023-11-18T09:08:53;8.70;;;5.10;;
56173;SDS011;42058;52.308;20.924;2023-11-18T09:11:22;9.80;;;5.20;;
56173;SDS011;42058;52.308;20.924;2023-11-18T09:13:51;6.90;;;4.80;;
56173;SDS011;42058;52.308;20.924;2023-11-18T09:16:24;8.80;;;4.90;;
56173;SDS011;42058;52.308;20.924;2023-11-18T09:18:54;8.40;;;5.10;;
56173;SDS011;42058;52.308;20.924;2023-11-18T09:21:24;7.90;;;5.00;;
56173;SDS011;42058;52.308;20.924;2023-11-18T09:23:56;6.90;;;4.50;;
56173;SDS011;42058;52.308;20.924;2023-11-18T09:26:24;7.70;;;4.50;;
56173;SDS011;42058;52.308;20.924;2023-11-18T09:28:54;8.10;;;5.30;;
56173;SDS011;42058;52.308;20.924;2023-11-18T09:31:22;6.50;;;4.40;;
56173;SDS011;42058;52.308;20.924;2023-11-18T09:33:50;7.20;;;4.50;;
56173;SDS011;42058;52.308;20.924;2023-11-18T09:36:21;8.00;;;5.40;;
56173;SDS011;42058;52.308;20.924;2023-11-18T09:38:50;8.10;;;4.80;;
56173;SDS011;42058;52.308;20.924;2023-11-18T09:41:17;8.50;;;5.40;;
56173;SDS011;42058;52.308;20.924;2023-11-18T09:43:46;8.40;;;5.00;;
56173;SDS011;42058;52.308;20.924;2023-11-18T09:46:16;9.60;;;5.50;;
56173;SDS011;42058;52.308;20.924;2023-11-18T09:48:51;8.20;;;4.80;;
56173;SDS011;42058;52.308;20.924;2023-11-18T09:51:21;7.00;;;4.60;;
56173;SDS011;42058;52.308;20.924;2023-11-18T09:53:51;9.00;;;4.90;;
56173;SDS011;42058;52.308;20.924;2023-11-18T09:56:31;7.20;;;4.90;;
56173;SDS011;42058;52.308;20.924;2023-11-18T09:59:13;8.60;;;5.30;;
56173;SDS011;42058;52.308;20.924;2023-11-18T10:01:44;9.30;;;5.10;;
56173;SDS011;42058;52.308;20.924;2023-11-18T10:04:22;10.00;;;5.80;;
56173;SDS011;42058;52.308;20.924;2023-11-18T10:06:55;9.10;;;5.50;;
56173;SDS011;42058;52.308;20.924;2023-11-18T10:09:24;7.80;;;4.90;;
56173;SDS011;42058;52.308;20.924;2023-11-18T10:12:20;9.20;;;5.80;;
56173;SDS011;42058;52.308;20.924;2023-11-18T10:14:51;10.10;;;5.90;;
56173;SDS011;42058;52.308;20.924;2023-11-18T10:17:23;10.30;;;5.30;;
56173;SDS011;42058;52.308;20.924;2023-11-18T10:19:53;10.20;;;5.60;;
56173;SDS011;42058;52.308;20.924;2023-11-18T10:24:59;8.10;;;5.40;;
56173;SDS011;42058;52.308;20.924;2023-11-18T10:27:29;8.40;;;5.60;;
56173;SDS011;42058;52.308;20.924;2023-11-18T10:29:58;9.70;;;6.20;;
56173;SDS011;42058;52.308;20.924;2023-11-18T10:32:30;10.70;;;5.40;;
56173;SDS011;42058;52.308;20.924;2023-11-18T10:35:03;10.80;;;6.40;;
56173;SDS011;42058;52.308;20.924;2023-11-18T10:37:35;12.80;;;6.50;;
56173;SDS011;42058;52.308;20.924;2023-11-18T10:40:09;12.40;;;6.20;;
56173;SDS011;42058;52.308;20.924;2023-11-18T10:42:41;12.00;;;7.00;;
56173;SDS011;42058;52.308;20.924;2023-11-18T10:45:12;11.60;;;7.10;;
56173;SDS011;42058;52.308;20.924;2023-11-18T10:47:42;12.90;;;6.60;;
56173;SDS011;42058;52.308;20.924;2023-11-18T10:50:10;8.20;;;5.10;;
56173;SDS011;42058;52.308;20.924;2023-11-18T10:52:38;9.70;;;5.60;;
56173;SDS011;42058;52.308;20.924;2023-11-18T10:55:08;12.50;;;6.80;;
56173;SDS011;42058;52.308;20.924;2023-11-18T10:57:40;14.70;;;7.90;;
56173;SDS011;42058;52.308;20.924;2023-11-18T11:00:10;13.50;;;7.50;;
56173;SDS011;42058;52.308;20.924;2023-11-18T11:02:43;12.60;;;7.20;;
56173;SDS011;42058;52.308;20.924;2023-11-18T11:05:11;17.40;;;7.50;;
56173;SDS011;42058;52.308;20.924;2023-11-18T11:07:48;14.10;;;7.50;;
56173;SDS011;42058;52.308;20.924;2023-11-18T11:10:17;9.30;;;5.90;;
56173;SDS011;42058;52.308;20.924;2023-11-18T11:12:52;13.90;;;7.10;;
56173;SDS011;42058;52.308;20.924;2023-11-18T11:15:23;13.60;;;7.30;;
56173;SDS011;42058;52.308;20.924;2023-11-18T11:17:57;14.10;;;6.80;;
56173;SDS011;42058;52.308;20.924;2023-11-18T11:20:45;9.80;;;6.30;;
56173;SDS011;42058;52.308;20.924;2023-11-18T11:23:21;11.20;;;6.80;;
56173;SDS011;42058;52.308;20.924;2023-11-18T11:26:28;13.00;;;7.40;;
56173;SDS011;42058;52.308;20.924;2023-11-18T11:34:53;12.70;;;7.10;;
56173;SDS011;42058;52.308;20.924;2023-11-18T11:37:25;11.50;;;6.50;;
56173;SDS011;42058;52.308;20.924;2023-11-18T11:39:54;12.00;;;6.50;;
56173;SDS011;42058;52.308;20.924;2023-11-18T11:42:25;14.00;;;7.60;;
56173;SDS011;42058;52.308;20.924;2023-11-18T11:44:54;14.70;;;8.00;;
56173;SDS011;42058;52.308;20.924;2023-11-18T11:47:23;15.60;;;8.50;;
56173;SDS011;42058;52.308;20.924;2023-11-18T11:50:06;13.20;;;7.70;;
56173;SDS011;42058;52.308;20.924;2023-11-18T11:52:51;13.40;;;7.00;;
56173;SDS011;42058;52.308;20.924;2023-11-18T11:55:31;14.00;;;7.00;;
56173;SDS011;42058;52.308;20.924;2023-11-18T11:58:12;15.20;;;7.90;;
56173;SDS011;42058;52.308;20.924;2023-11-18T12:00:53;13.20;;;5.90;;
56173;SDS011;42058;52.308;20.924;2023-11-18T12:03:21;13.50;;;7.30;;
56173;SDS011;42058;52.308;20.924;2023-11-18T12:05:54;12.10;;;7.30;;
56173;SDS011;42058;52.308;20.924;2023-11-18T12:08:23;12.70;;;7.40;;
56173;SDS011;42058;52.308;20.924;2023-11-18T12:10:52;13.70;;;7.70;;
56173;SDS011;42058;52.308;20.924;2023-11-18T12:13:21;15.70;;;7.20;;
56173;SDS011;42058;52.308;20.924;2023-11-18T12:15:55;13.10;;;7.50;;
56173;SDS011;42058;52.308;20.924;2023-11-18T12:18:31;14.30;;;7.50;;
56173;SDS011;42058;52.308;20.924;2023-11-18T12:21:01;13.30;;;7.50;;
56173;SDS011;42058;52.308;20.924;2023-11-18T12:23:30;12.80;;;7.40;;
56173;SDS011;42058;52.308;20.924;2023-11-18T12:25:59;16.80;;;7.70;;
56173;SDS011;42058;52.308;20.924;2023-11-18T12:28:28;12.30;;;6.70;;
56173;SDS011;42058;52.308;20.924;2023-11-18T12:31:04;11.50;;;7.10;;
56173;SDS011;42058;52.308;20.924;2023-11-18T12:41:38;13.40;;;7.90;;
56173;SDS011;42058;52.308;20.924;2023-11-18T12:47:03;14.10;;;7.40;;
56173;SDS011;42058;52.308;20.924;2023-11-18T12:49:42;14.50;;;8.00;;
56173;SDS011;42058;52.308;20.924;2023-11-18T12:52:11;14.70;;;7.60;;
56173;SDS011;42058;52.308;20.924;2023-11-18T12:54:42;18.20;;;8.40;;
56173;SDS011;42058;52.308;20.924;2023-11-18T12:57:11;15.60;;;8.50;;
56173;SDS011;42058;52.308;20.924;2023-11-18T12:59:42;16.70;;;9.00;;
56173;SDS011;42058;52.308;20.924;2023-11-18T13:02:10;13.90;;;9.00;;
56173;SDS011;42058;52.308;20.924;2023-11-18T13:04:47;14.10;;;8.70;;
56173;SDS011;42058;52.308;20.924;2023-11-18T13:07:17;20.40;;;8.50;;
56173;SDS011;42058;52.308;20.924;2023-11-18T13:09:45;15.40;;;8.90;;
56173;SDS011;42058;52.308;20.924;2023-11-18T13:12:14;15.30;;;8.60;;
56173;SDS011;42058;52.308;20.924;2023-11-18T13:14:42;20.10;;;9.30;;
56173;SDS011;42058;52.308;20.924;2023-11-18T13:17:12;17.70;;;9.30;;
56173;SDS011;42058;52.308;20.924;2023-11-18T13:19:41;16.60;;;8.10;;
56173;SDS011;42058;52.308;20.924;2023-11-18T13:22:13;19.70;;;9.30;;
56173;SDS011;42058;52.308;20.924;2023-11-18T13:24:42;17.00;;;9.20;;
56173;SDS011;42058;52.308;20.924;2023-11-18T13:27:18;18.60;;;9.30;;
56173;SDS011;42058;52.308;20.924;2023-11-18T13:29:47;19.00;;;10.50;;
56173;SDS011;42058;52.308;20.924;2023-11-18T13:32:20;20.00;;;8.70;;
56173;SDS011;42058;52.308;20.924;2023-11-18T13:34:51;19.40;;;8.80;;
56173;SDS011;42058;52.308;20.924;2023-11-18T13:37:19;17.80;;;9.20;;
56173;SDS011;42058;52.308;20.924;2023-11-18T13:39:54;20.30;;;11.10;;
56173;SDS011;42058;52.308;20.924;2023-11-18T13:42:24;17.50;;;10.10;;
56173;SDS011;42058;52.308;20.924;2023-11-18T13:45:00;19.10;;;10.00;;
56173;SDS011;42058;52.308;20.924;2023-11-18T13:47:36;16.60;;;9.10;;
56173;SDS011;42058;52.308;20.924;2023-11-18T13:50:08;19.30;;;10.00;;
56173;SDS011;42058;52.308;20.924;2023-11-18T13:52:36;20.60;;;10.10;;
56173;SDS011;42058;52.308;20.924;2023-11-18T13:55:06;21.10;;;10.40;;
56173;SDS011;42058;52.308;20.924;2023-11-18T13:57:36;19.70;;;10.50;;
56173;SDS011;42058;52.308;20.924;2023-11-18T14:00:04;18.70;;;10.40;;
56173;SDS011;42058;52.308;20.924;2023-11-18T14:02:34;20.90;;;10.10;;
56173;SDS011;42058;52.308;20.924;2023-11-18T14:05:04;21.80;;;11.00;;
56173;SDS011;42058;52.308;20.924;2023-11-18T14:07:37;19.50;;;10.10;;
56173;SDS011;42058;52.308;20.924;2023-11-18T14:10:06;19.70;;;10.60;;
56173;SDS011;42058;52.308;20.924;2023-11-18T14:12:35;25.10;;;12.00;;
56173;SDS011;42058;52.308;20.924;2023-11-18T14:15:04;17.80;;;9.60;;
56173;SDS011;42058;52.308;20.924;2023-11-18T14:17:32;19.20;;;9.30;;
56173;SDS011;42058;52.308;20.924;2023-11-18T14:20:00;20.30;;;10.20;;
56173;SDS011;42058;52.308;20.924;2023-11-18T14:22:29;17.50;;;9.30;;
56173;SDS011;42058;52.308;20.924;2023-11-18T14:24:57;16.80;;;8.90;;
56173;SDS011;42058;52.308;20.924;2023-11-18T14:27:25;18.20;;;10.00;;
56173;SDS011;42058;52.308;20.924;2023-11-18T14:29:53;19.20;;;10.00;;
56173;SDS011;42058;52.308;20.924;2023-11-18T14:32:21;20.60;;;10.20;;
56173;SDS011;42058;52.308;20.924;2023-11-18T14:34:49;19.70;;;10.70;;
56173;SDS011;42058;52.308;20.924;2023-11-18T14:37:17;20.50;;;10.10;;
56173;SDS011;42058;52.308;20.924;2023-11-18T14:39:46;18.90;;;10.40;;
56173;SDS011;42058;52.308;20.924;2023-11-18T14:42:14;20.20;;;10.60;;
56173;SDS011;42058;52.308;20.924;2023-11-18T14:44:42;23.50;;;10.60;;
56173;SDS011;42058;52.308;20.924;2023-11-18T14:47:09;24.10;;;12.00;;
56173;SDS011;42058;52.308;20.924;2023-11-18T14:49:38;22.40;;;11.50;;
56173;SDS011;42058;52.308;20.924;2023-11-18T14:52:06;26.00;;;12.40;;
56173;SDS011;42058;52.308;20.924;2023-11-18T14:54:35;25.40;;;12.90;;
56173;SDS011;42058;52.308;20.924;2023-11-18T14:57:03;25.50;;;12.20;;
56173;SDS011;42058;52.308;20.924;2023-11-18T14:59:32;21.20;;;11.10;;
56173;SDS011;42058;52.308;20.924;2023-11-18T15:02:00;21.00;;;10.30;;
56173;SDS011;42058;52.308;20.924;2023-11-18T15:04:28;21.70;;;11.50;;
56173;SDS011;42058;52.308;20.924;2023-11-18T15:06:56;22.00;;;11.80;;
56173;SDS011;42058;52.308;20.924;2023-11-18T15:09:24;23.40;;;12.50;;
56173;SDS011;42058;52.308;20.924;2023-11-18T15:11:52;22.10;;;11.80;;
56173;SDS011;42058;52.308;20.924;2023-11-18T15:14:20;22.40;;;12.50;;
56173;SDS011;42058;52.308;20.924;2023-11-18T15:16:48;23.80;;;12.70;;